Boston, MA (02101)

6:09 PM EST on February 10, 2016 (GMT -0500)
Sumner Place | | Change Station
CLOSE
Current Station
Personal Weather Station
Location: Boston, MA
Elevation: 56 ft
Nearby Weather Stations

Elev 56 ft 42.37 °N, 71.03 °W | Updated 9 minutes ago

Overcast
Overcast
34.7 °F
Feels Like 35 °F
N
0.0
Wind Variable Wind from ESE

Today
High -- | Low -- °F
--% Chance of Precip.
Yesterday
High -- | Low -- °F
Precip. -- in
Pressure 29.60 in
Visibility 10.0 miles
Clouds Few 1900 ft
Mostly Cloudy 5000 ft
Overcast 20000 ft
Windchill 35 °F
Dew Point 30 °F
Humidity 84%
Rainfall 0.20 in
Snow Depth Not available.
6:47 AM 5:09 PM
Waxing Crescent, 7% visible
METAR KBOS 102254Z 20007KT 10SM FEW019 BKN050 OVC200 02/M02 A2960 RMK AO2 SLP023 T00171017
Pressure 29.60 in
Visibility 10.0 miles
Clouds Few 1900 ft
Mostly Cloudy 5000 ft
Overcast 20000 ft
Windchill 35 °F
Dew Point 30 °F
Humidity 84%
Rainfall 0.20 in
Snow Depth Not available.
6:47 AM 5:09 PM
Waxing Crescent, 7% visible
METAR KBOS 102254Z 20007KT 10SM FEW019 BKN050 OVC200 02/M02 A2960 RMK AO2 SLP023 T00171017

10-Day Weather Forecast

Almanac

Astronomy

Feb. 10, 2016 Rise Set
Actual Time
Civil Twilight
Nautical Twilight
Astronomical Twilight
Moon
Length of Visible Light
Length of Day
Tomorrow will be .
, % of the Moon is Illuminated

Today's Extremes

State Highs State Lows

Community

WunderPhotos

Upload Photos

1,891,933 photos uploaded!

WunderBlog® & News

Nearby

Air Quality

  Air Quality AQ Index Pollutant
Not available.

Snow Depth

Station Depth Elevation

Earthquake Activity

City Distance Mag. Time & Date
Minimum magnitude displayed is 2.5.

Coastal Water Temperatures

Place Temperature

Stations

Nearby Weather Stations

Station Location Temp. Windchill Dew Point Humidity Wind Precip. Elev Updated Type
                   

Watches & Warnings

There are currently no watches in effect.